Time;durP1;ratioP1;P1;durP2;ratioP2;P2;SDS_P1;SDS_P2;PMS_P1;PMS_P2;Temp;Humidity;BMP_temperature;BMP_pressure;BME280_temperature;BME280_humidity;BME280_pressure;Samples;Min_cycle;Max_cycle;Signal;HPM_P1;HPM_P2
2022/03/05 00:00:27;;;;;;;;;;;5.00;85.80;;;;;;5073226;28;19912;-70
2022/03/05 00:02:52;;;;;;;;;;;5.10;85.60;;;;;;5071845;28;19908;-69
2022/03/05 00:05:18;;;;;;;;;;;5.20;85.40;;;;;;5073197;28;19942;-65
2022/03/05 00:07:44;;;;;;;;;;;5.20;85.80;;;;;;5073150;28;19912;-67
2022/03/05 00:10:09;;;;;;;;;;;5.20;86.40;;;;;;5071816;28;19912;-69
2022/03/05 00:12:35;;;;;;;;;;;5.10;86.90;;;;;;5073088;28;20322;-70
2022/03/05 00:15:01;;;;;;;;;;;5.00;87.20;;;;;;5072946;28;21346;-69
2022/03/05 00:17:27;;;;;;;;;;;4.90;87.10;;;;;;5073177;28;19909;-65
2022/03/05 00:19:53;;;;;;;;;;;4.90;88.10;;;;;;5072901;28;19915;-69
2022/03/05 00:22:19;;;;;;;;;;;4.70;89.00;;;;;;5072819;28;20315;-70
2022/03/05 00:24:45;;;;;;;;;;;4.50;90.00;;;;;;5072837;28;20007;-65
2022/03/05 00:27:11;;;;;;;;;;;4.50;89.70;;;;;;5072720;28;20011;-69
2022/03/05 00:29:37;;;;;;;;;;;4.40;89.50;;;;;;5071719;28;19909;-64
2022/03/05 00:32:03;;;;;;;;;;;4.30;90.10;;;;;;5072624;28;19915;-67
2022/03/05 00:34:28;;;;;;;;;;;4.40;90.20;;;;;;5072746;28;20497;-70
2022/03/05 00:36:54;;;;;;;;;;;4.20;90.00;;;;;;5072651;28;19908;-65
2022/03/05 00:39:19;;;;;;;;;;;4.40;90.00;;;;;;5072382;28;20260;-70
2022/03/05 00:41:45;;;;;;;;;;;4.40;89.50;;;;;;5070985;28;19953;-70
2022/03/05 00:44:11;;;;;;;;;;;4.40;89.40;;;;;;5072452;28;19942;-70
2022/03/05 00:46:36;;;;;;;;;;;4.40;89.50;;;;;;5072354;28;19915;-69
2022/03/05 00:49:02;;;;;;;;;;;4.40;89.20;;;;;;5073564;28;19912;-70
2022/03/05 00:51:28;;;;;;;;;;;4.40;89.40;;;;;;5073627;28;19908;-69
2022/03/05 00:53:54;;;;;;;;;;;4.30;90.00;;;;;;5074794;28;20367;-65
2022/03/05 00:56:19;;;;;;;;;;;4.30;89.70;;;;;;5074551;28;19912;-65
2022/03/05 00:58:45;;;;;;;;;;;4.30;89.90;;;;;;5073014;28;19912;-64
2022/03/05 01:01:10;;;;;;;;;;;4.10;90.00;;;;;;5072668;28;19914;-68
2022/03/05 01:03:36;;;;;;;;;;;4.10;90.20;;;;;;5073461;28;19912;-65
2022/03/05 01:06:02;;;;;;;;;;;4.00;90.50;;;;;;5074165;28;19916;-65
2022/03/05 01:08:27;;;;;;;;;;;3.90;90.60;;;;;;5074463;28;19908;-65
2022/03/05 01:10:53;;;;;;;;;;;3.90;90.60;;;;;;5073277;28;19914;-68
2022/03/05 01:13:19;;;;;;;;;;;3.90;90.70;;;;;;5074213;28;19916;-64
2022/03/05 01:15:44;;;;;;;;;;;3.80;91.10;;;;;;5074253;28;20382;-65
2022/03/05 01:18:10;;;;;;;;;;;3.90;90.70;;;;;;5072834;28;20279;-65
2022/03/05 01:20:35;;;;;;;;;;;3.90;90.60;;;;;;5074227;28;19912;-65
2022/03/05 01:23:02;;;;;;;;;;;4.00;90.60;;;;;;5072900;28;19920;-64
2022/03/05 01:25:27;;;;;;;;;;;4.10;90.70;;;;;;5074325;28;19995;-65
2022/03/05 01:27:53;;;;;;;;;;;3.90;90.80;;;;;;5074125;28;20003;-66
2022/03/05 01:30:18;;;;;;;;;;;3.90;90.40;;;;;;5073591;28;19908;-64
2022/03/05 01:32:44;;;;;;;;;;;4.10;90.20;;;;;;5073672;28;19939;-65
2022/03/05 01:35:10;;;;;;;;;;;4.00;90.40;;;;;;5073523;28;19919;-65
2022/03/05 01:37:35;;;;;;;;;;;4.00;90.40;;;;;;5073746;28;19966;-69
2022/03/05 01:40:02;;;;;;;;;;;4.00;90.10;;;;;;5073894;28;20425;-65
2022/03/05 01:42:27;;;;;;;;;;;4.10;89.80;;;;;;5073967;28;19916;-65
2022/03/05 01:44:53;;;;;;;;;;;4.10;89.50;;;;;;5073891;28;19908;-66
2022/03/05 01:47:19;;;;;;;;;;;4.10;89.50;;;;;;5073740;28;19908;-65
2022/03/05 01:49:44;;;;;;;;;;;4.10;90.40;;;;;;5073923;28;19908;-65
2022/03/05 01:52:10;;;;;;;;;;;4.00;89.90;;;;;;5073441;28;19916;-69
2022/03/05 01:54:36;;;;;;;;;;;4.10;89.60;;;;;;5072411;28;19924;-65
2022/03/05 01:57:02;;;;;;;;;;;4.10;89.90;;;;;;5073686;28;19962;-69
2022/03/05 01:59:28;;;;;;;;;;;4.00;89.50;;;;;;5073576;28;20275;-67
2022/03/05 02:01:54;;;;;;;;;;;3.90;89.40;;;;;;5073614;28;19912;-65
2022/03/05 02:04:19;;;;;;;;;;;3.80;90.00;;;;;;5073565;28;19938;-65
2022/03/05 02:06:45;;;;;;;;;;;3.90;89.40;;;;;;5073591;28;20292;-65
2022/03/05 02:09:11;;;;;;;;;;;3.90;90.10;;;;;;5073497;28;19935;-67
2022/03/05 02:11:36;;;;;;;;;;;4.00;89.70;;;;;;5073452;28;19908;-65
2022/03/05 02:14:02;;;;;;;;;;;4.00;89.10;;;;;;5073440;28;20018;-69
2022/03/05 02:16:29;;;;;;;;;;;4.00;88.60;;;;;;5073602;28;19935;-69
2022/03/05 02:18:55;;;;;;;;;;;4.10;88.40;;;;;;5073497;28;19966;-69
2022/03/05 02:21:25;;;;;;;;;;;4.10;89.20;;;;;;5073417;28;19908;-69
2022/03/05 02:23:50;;;;;;;;;;;4.10;87.90;;;;;;5072128;28;20315;-65
2022/03/05 02:26:16;;;;;;;;;;;4.10;88.00;;;;;;5073428;28;19950;-65
2022/03/05 02:28:42;;;;;;;;;;;4.10;88.10;;;;;;5073263;28;19909;-65
2022/03/05 02:31:08;;;;;;;;;;;4.00;88.50;;;;;;5072882;28;20317;-68
2022/03/05 02:33:33;;;;;;;;;;;4.00;88.60;;;;;;5073115;28;19924;-64
2022/03/05 02:35:59;;;;;;;;;;;3.90;88.60;;;;;;5073237;28;19909;-65
2022/03/05 02:38:25;;;;;;;;;;;3.90;88.80;;;;;;5073152;28;19955;-67
2022/03/05 02:40:51;;;;;;;;;;;3.90;88.80;;;;;;5072124;28;19995;-69
2022/03/05 02:43:17;;;;;;;;;;;3.90;88.80;;;;;;5073191;28;20351;-70
2022/03/05 02:45:43;;;;;;;;;;;3.80;88.80;;;;;;5073059;28;19909;-67
2022/03/05 02:48:09;;;;;;;;;;;;;;;;;;5075641;28;19991;-69
2022/03/05 02:50:35;;;;;;;;;;;3.50;99.90;;;;;;5077066;28;20375;-68
2022/03/05 02:53:01;;;;;;;;;;;3.40;90.00;;;;;;5076876;28;19919;-69
2022/03/05 02:55:27;;;;;;;;;;;3.30;90.00;;;;;;5076808;28;19943;-65
2022/03/05 02:57:53;;;;;;;;;;;3.20;90.00;;;;;;5076899;28;19912;-65
2022/03/05 03:00:18;;;;;;;;;;;3.40;90.10;;;;;;5076926;28;20353;-64
2022/03/05 03:02:45;;;;;;;;;;;3.40;89.70;;;;;;5076978;28;19912;-65
2022/03/05 03:05:11;;;;;;;;;;;3.40;89.70;;;;;;5076845;28;19947;-66
2022/03/05 03:07:37;;;;;;;;;;;3.50;89.10;;;;;;5075513;28;19948;-69
2022/03/05 03:10:06;;;;;;;;;;;3.60;88.60;;;;;;5084240;28;20395;-64
2022/03/05 03:12:35;;;;;;;;;;;3.70;89.20;;;;;;5063155;28;19909;-65
2022/03/05 03:15:04;;;;;;;;;;;3.70;89.20;;;;;;5054563;28;19913;-65
2022/03/05 03:17:38;;;;;;;;;;;3.60;89.20;;;;;;5054675;28;19909;-65
2022/03/05 03:20:04;;;;;;;;;;;3.50;89.50;;;;;;5054369;28;19920;-69
2022/03/05 03:22:30;;;;;;;;;;;3.50;89.70;;;;;;5054822;28;20360;-68
2022/03/05 03:24:55;;;;;;;;;;;3.50;89.30;;;;;;5056588;28;19912;-64
2022/03/05 03:27:21;;;;;;;;;;;3.50;89.30;;;;;;5056499;28;19912;-69
2022/03/05 03:29:46;;;;;;;;;;;3.50;88.90;;;;;;5058063;28;19991;-68
2022/03/05 03:32:12;;;;;;;;;;;3.50;88.90;;;;;;5067072;28;20356;-65
2022/03/05 03:34:38;;;;;;;;;;;3.70;88.30;;;;;;5071221;28;19959;-67
2022/03/05 03:37:04;;;;;;;;;;;3.60;88.50;;;;;;5073970;28;19908;-64
2022/03/05 03:39:29;;;;;;;;;;;3.60;88.60;;;;;;5074662;28;19908;-66
2022/03/05 03:41:55;;;;;;;;;;;3.70;88.00;;;;;;5076234;28;20038;-64
2022/03/05 03:44:20;;;;;;;;;;;3.90;87.90;;;;;;5076185;28;19999;-65
2022/03/05 03:46:46;;;;;;;;;;;4.00;87.00;;;;;;5075993;28;19912;-65
2022/03/05 03:49:12;;;;;;;;;;;4.00;87.10;;;;;;5075960;28;19912;-68
2022/03/05 03:51:38;;;;;;;;;;;4.20;86.70;;;;;;5075635;28;19912;-65
2022/03/05 03:54:03;;;;;;;;;;;4.00;87.00;;;;;;5075901;28;19923;-65
2022/03/05 03:56:29;;;;;;;;;;;4.10;87.00;;;;;;5076056;28;19909;-65
2022/03/05 03:58:54;;;;;;;;;;;4.00;87.40;;;;;;5074080;28;19916;-65
2022/03/05 04:01:20;;;;;;;;;;;3.80;88.20;;;;;;5075514;28;19916;-67
2022/03/05 04:03:46;;;;;;;;;;;3.60;87.80;;;;;;5075610;28;20363;-65
2022/03/05 04:06:11;;;;;;;;;;;3.50;88.00;;;;;;5075806;28;19934;-69
2022/03/05 04:08:43;;;;;;;;;;;3.40;87.60;;;;;;5075855;28;19921;-65
2022/03/05 04:11:10;;;;;;;;;;;3.40;87.70;;;;;;5075297;28;19916;-66
2022/03/05 04:13:35;;;;;;;;;;;3.40;88.10;;;;;;5075629;28;19916;-64
2022/03/05 04:16:01;;;;;;;;;;;3.30;87.90;;;;;;5075662;28;19916;-65
2022/03/05 04:18:27;;;;;;;;;;;3.40;87.70;;;;;;5075591;28;19915;-67
2022/03/05 04:20:52;;;;;;;;;;;3.40;87.10;;;;;;5075297;28;20322;-65
2022/03/05 04:23:18;;;;;;;;;;;3.50;86.50;;;;;;5074017;28;19961;-66
2022/03/05 04:25:44;;;;;;;;;;;3.30;87.10;;;;;;5075679;28;19966;-67
2022/03/05 04:28:09;;;;;;;;;;;3.40;86.40;;;;;;5074163;28;19908;-69
2022/03/05 04:30:35;;;;;;;;;;;3.30;86.30;;;;;;5075420;28;19987;-68
2022/03/05 04:33:01;;;;;;;;;;;3.40;92.30;;;;;;5075184;28;19912;-69
2022/03/05 04:35:26;;;;;;;;;;;3.70;93.00;;;;;;5074922;28;19909;-68
2022/03/05 04:37:52;;;;;;;;;;;3.60;93.70;;;;;;5073922;28;19920;-64
2022/03/05 04:40:18;;;;;;;;;;;3.70;93.70;;;;;;5072188;28;19908;-67
2022/03/05 04:42:43;;;;;;;;;;;3.60;93.80;;;;;;5073899;28;20343;-65
2022/03/05 04:45:09;;;;;;;;;;;3.60;94.10;;;;;;5073834;28;19958;-65
2022/03/05 04:47:35;;;;;;;;;;;3.50;94.50;;;;;;5075384;28;19913;-64
2022/03/05 04:50:01;;;;;;;;;;;3.40;95.20;;;;;;5074697;28;19909;-69
2022/03/05 04:52:27;;;;;;;;;;;3.40;95.30;;;;;;5074557;28;19915;-65
2022/03/05 04:54:53;;;;;;;;;;;;;;;;;;5074729;28;20014;-65
2022/03/05 04:57:19;;;;;;;;;;;3.20;99.90;;;;;;5074764;28;19915;-68
2022/03/05 04:59:44;;;;;;;;;;;3.00;88.60;;;;;;5074537;28;19908;-65
2022/03/05 05:02:10;;;;;;;;;;;2.90;88.80;;;;;;5074399;28;20417;-65
2022/03/05 05:04:36;;;;;;;;;;;2.90;88.60;;;;;;5074238;28;20283;-68
2022/03/05 05:07:01;;;;;;;;;;;3.00;88.60;;;;;;5074298;28;19908;-66
2022/03/05 05:09:27;;;;;;;;;;;2.90;88.50;;;;;;5073734;28;19908;-65
2022/03/05 05:11:52;;;;;;;;;;;3.00;88.10;;;;;;5074567;28;19908;-64
2022/03/05 05:14:18;;;;;;;;;;;3.10;87.10;;;;;;5074371;28;19916;-64
2022/03/05 05:16:44;;;;;;;;;;;3.30;86.70;;;;;;5074368;28;19908;-69
2022/03/05 05:19:24;;;;;;;;;;;3.20;87.00;;;;;;5074303;28;19915;-68
2022/03/05 05:21:51;;;;;;;;;;;3.00;89.10;;;;;;5074137;28;20212;-69
2022/03/05 05:24:17;;;;;;;;;;;2.70;89.00;;;;;;5072859;28;19916;-68
2022/03/05 05:26:42;;;;;;;;;;;2.50;89.10;;;;;;5074074;28;19908;-68
2022/03/05 05:29:08;;;;;;;;;;;2.70;88.20;;;;;;5073940;28;20268;-68
2022/03/05 05:31:33;;;;;;;;;;;2.90;88.50;;;;;;5073807;28;20364;-68
2022/03/05 05:34:00;;;;;;;;;;;2.90;88.50;;;;;;5072368;28;19923;-69
2022/03/05 05:36:25;;;;;;;;;;;2.80;90.10;;;;;;5073577;28;19912;-69
2022/03/05 05:38:51;;;;;;;;;;;2.70;88.40;;;;;;5072497;28;20344;-67
2022/03/05 05:41:18;;;;;;;;;;;2.70;88.30;;;;;;5072690;28;19915;-65
2022/03/05 05:43:44;;;;;;;;;;;2.70;89.10;;;;;;5072627;28;19908;-67
2022/03/05 05:46:10;;;;;;;;;;;2.60;90.00;;;;;;5072523;28;19957;-69
2022/03/05 05:48:36;;;;;;;;;;;2.60;90.00;;;;;;5072557;28;19916;-65
2022/03/05 05:51:01;;;;;;;;;;;2.50;90.40;;;;;;5073828;28;19913;-64
2022/03/05 05:53:27;;;;;;;;;;;2.60;89.60;;;;;;5073537;28;20000;-65
2022/03/05 05:55:53;;;;;;;;;;;2.60;89.90;;;;;;5073760;28;19909;-69
2022/03/05 05:58:19;;;;;;;;;;;2.40;89.80;;;;;;5073723;28;19915;-64
2022/03/05 06:00:45;;;;;;;;;;;;;;;;;;5072286;28;19915;-68
2022/03/05 06:03:11;;;;;;;;;;;2.50;99.90;;;;;;5073599;28;19908;-67
2022/03/05 06:05:36;;;;;;;;;;;2.30;93.90;;;;;;5072337;28;19994;-68
2022/03/05 06:08:02;;;;;;;;;;;2.10;93.00;;;;;;5073590;28;20046;-68
2022/03/05 06:10:28;;;;;;;;;;;;;;;;;;5073471;28;19908;-66
2022/03/05 06:12:53;;;;;;;;;;;2.30;98.70;;;;;;5073564;28;20014;-65
2022/03/05 06:15:19;;;;;;;;;;;2.50;98.80;;;;;;5073432;28;20367;-64
2022/03/05 06:17:45;;;;;;;;;;;;;;;;;;5073651;28;20030;-68
2022/03/05 06:20:11;;;;;;;;;;;;;;;;;;5073644;28;19940;-65
2022/03/05 06:22:37;;;;;;;;;;;;;;;;;;5073230;28;19913;-67
2022/03/05 06:25:03;;;;;;;;;;;;;;;;;;5073552;28;19990;-64
2022/03/05 06:27:29;;;;;;;;;;;;;;;;;;5073552;28;19909;-68
2022/03/05 06:29:54;;;;;;;;;;;2.60;99.90;;;;;;5073254;28;19944;-65
2022/03/05 06:32:20;;;;;;;;;;;2.40;90.00;;;;;;5072590;28;19950;-66
2022/03/05 06:34:46;;;;;;;;;;;2.40;90.60;;;;;;5073080;28;19974;-66
2022/03/05 06:37:11;;;;;;;;;;;2.50;88.70;;;;;;5072084;28;19908;-66
2022/03/05 06:39:37;;;;;;;;;;;2.70;88.00;;;;;;5073183;28;19908;-64
2022/03/05 06:42:03;;;;;;;;;;;2.70;88.20;;;;;;5073363;28;19912;-68
2022/03/05 06:44:28;;;;;;;;;;;2.60;87.60;;;;;;5073157;28;19912;-66
2022/03/05 06:46:54;;;;;;;;;;;2.70;88.40;;;;;;5073344;28;19999;-69
2022/03/05 06:49:19;;;;;;;;;;;2.60;87.70;;;;;;5071813;28;20378;-68
2022/03/05 06:51:45;;;;;;;;;;;2.80;88.20;;;;;;5073124;28;19908;-69
2022/03/05 06:54:11;;;;;;;;;;;3.20;87.40;;;;;;5072920;28;19923;-68
2022/03/05 06:56:37;;;;;;;;;;;3.60;86.00;;;;;;5072592;28;19981;-68
2022/03/05 06:59:03;;;;;;;;;;;3.80;89.30;;;;;;5072823;28;19943;-69
2022/03/05 07:01:28;;;;;;;;;;;4.00;89.30;;;;;;5071329;28;20012;-64
2022/03/05 07:03:54;;;;;;;;;;;4.20;88.70;;;;;;5072856;28;19912;-64
2022/03/05 07:06:20;;;;;;;;;;;4.40;86.00;;;;;;5073015;28;19915;-69
2022/03/05 07:08:45;;;;;;;;;;;4.20;84.40;;;;;;5073018;28;19915;-69
2022/03/05 07:11:11;;;;;;;;;;;4.30;84.50;;;;;;5072924;28;19920;-69
2022/03/05 07:13:36;;;;;;;;;;;4.40;84.10;;;;;;5072820;28;20038;-68
2022/03/05 07:16:02;;;;;;;;;;;4.60;84.80;;;;;;5072952;28;19912;-69
2022/03/05 07:18:28;;;;;;;;;;;5.10;85.60;;;;;;5072898;28;19915;-69
2022/03/05 07:20:53;;;;;;;;;;;5.40;86.10;;;;;;5072959;28;20399;-70
2022/03/05 07:23:19;;;;;;;;;;;5.50;85.20;;;;;;5072559;28;19913;-69
2022/03/05 07:25:45;;;;;;;;;;;5.60;84.70;;;;;;5072650;28;20371;-68
2022/03/05 07:28:11;;;;;;;;;;;5.60;85.20;;;;;;5072344;28;19916;-68
2022/03/05 07:30:37;;;;;;;;;;;5.90;86.90;;;;;;5072348;28;19913;-65
2022/03/05 07:33:03;;;;;;;;;;;5.90;84.50;;;;;;5072061;28;19916;-68
2022/03/05 07:35:29;;;;;;;;;;;5.90;84.90;;;;;;5076410;28;19961;-71
2022/03/05 07:37:54;;;;;;;;;;;6.10;85.70;;;;;;5073010;28;19915;-69
2022/03/05 07:40:20;;;;;;;;;;;6.00;86.90;;;;;;5059444;28;19913;-70
2022/03/05 07:42:46;;;;;;;;;;;5.90;88.70;;;;;;5054379;28;19912;-66
2022/03/05 07:45:11;;;;;;;;;;;5.90;90.20;;;;;;5074449;28;19912;-65
2022/03/05 07:47:37;;;;;;;;;;;6.00;90.40;;;;;;5075950;28;20007;-69
2022/03/05 07:50:03;;;;;;;;;;;6.20;90.60;;;;;;5076060;28;20382;-65
2022/03/05 07:52:29;;;;;;;;;;;6.30;90.60;;;;;;5075821;28;19999;-70
2022/03/05 07:54:54;;;;;;;;;;;6.60;90.40;;;;;;5076079;28;20011;-69
2022/03/05 07:57:20;;;;;;;;;;;6.40;90.30;;;;;;5074619;28;19954;-67
2022/03/05 07:59:45;;;;;;;;;;;6.40;91.00;;;;;;5075867;28;19916;-68
2022/03/05 08:02:11;;;;;;;;;;;7.00;90.60;;;;;;5074629;28;19912;-66
2022/03/05 08:04:37;;;;;;;;;;;7.20;90.80;;;;;;5075846;28;19908;-69
2022/03/05 08:07:04;;;;;;;;;;;7.30;91.10;;;;;;5075872;28;19908;-71
2022/03/05 08:09:30;;;;;;;;;;;7.50;90.80;;;;;;5075529;28;19908;-68
2022/03/05 08:11:56;;;;;;;;;;;7.50;90.40;;;;;;5074046;28;20294;-69
2022/03/05 08:14:21;;;;;;;;;;;7.60;90.50;;;;;;5075629;28;19927;-69
2022/03/05 08:16:47;;;;;;;;;;;7.70;90.50;;;;;;5075312;28;19909;-66
2022/03/05 08:19:13;;;;;;;;;;;8.00;90.70;;;;;;5075668;28;19908;-66
2022/03/05 08:21:38;;;;;;;;;;;7.70;90.20;;;;;;5075337;28;19915;-67
2022/03/05 08:24:04;;;;;;;;;;;7.70;90.70;;;;;;5075239;28;20276;-72
2022/03/05 08:26:31;;;;;;;;;;;8.10;90.90;;;;;;5070834;28;19927;-66
2022/03/05 08:28:57;;;;;;;;;;;8.50;90.80;;;;;;5074026;28;19912;-72
2022/03/05 08:31:22;;;;;;;;;;;8.20;90.90;;;;;;5073333;28;19909;-69
2022/03/05 08:33:48;;;;;;;;;;;8.40;91.00;;;;;;5073065;28;19916;-71
2022/03/05 08:36:15;;;;;;;;;;;8.20;91.00;;;;;;5071181;28;19916;-73
2022/03/05 08:38:40;;;;;;;;;;;8.30;90.30;;;;;;5071811;28;19934;-70
2022/03/05 08:41:06;;;;;;;;;;;8.20;90.90;;;;;;5073955;28;19918;-66
2022/03/05 08:43:32;;;;;;;;;;;8.40;91.40;;;;;;5074748;28;19908;-66
2022/03/05 08:45:57;;;;;;;;;;;8.70;90.90;;;;;;5072843;28;20313;-69
2022/03/05 08:48:23;;;;;;;;;;;8.60;91.10;;;;;;5071848;28;19908;-65
2022/03/05 08:50:49;;;;;;;;;;;8.60;90.20;;;;;;5052831;28;19991;-66
2022/03/05 08:53:15;;;;;;;;;;;8.80;90.60;;;;;;5054181;28;20030;-67
2022/03/05 08:55:41;;;;;;;;;;;9.00;91.60;;;;;;5067106;28;19908;-69
2022/03/05 08:58:06;;;;;;;;;;;9.10;90.70;;;;;;5066934;28;19924;-66
2022/03/05 09:00:32;;;;;;;;;;;9.10;90.70;;;;;;5072003;28;19908;-67
2022/03/05 09:02:58;;;;;;;;;;;9.20;90.10;;;;;;5071586;28;19947;-71
2022/03/05 09:05:23;;;;;;;;;;;9.20;89.70;;;;;;5085256;28;19923;-71
2022/03/05 09:07:49;;;;;;;;;;;9.70;90.80;;;;;;5069623;28;20295;-72
2022/03/05 09:10:15;;;;;;;;;;;9.20;90.30;;;;;;5071574;28;19995;-73
2022/03/05 09:12:42;;;;;;;;;;;9.30;91.00;;;;;;5071130;28;20415;-69
2022/03/05 09:15:08;;;;;;;;;;;9.70;91.10;;;;;;5072381;28;19923;-69
2022/03/05 09:17:33;;;;;;;;;;;9.90;90.60;;;;;;5072799;28;19909;-68
2022/03/05 09:19:59;;;;;;;;;;;9.60;89.10;;;;;;5070107;28;20377;-68
2022/03/05 09:22:25;;;;;;;;;;;9.80;90.60;;;;;;5069869;28;19995;-69
2022/03/05 09:24:51;;;;;;;;;;;10.10;90.60;;;;;;5070720;28;19919;-72
2022/03/05 09:27:16;;;;;;;;;;;10.20;90.00;;;;;;5069390;28;20008;-74
2022/03/05 09:29:42;;;;;;;;;;;10.10;88.80;;;;;;5068989;28;19908;-74
2022/03/05 09:32:09;;;;;;;;;;;10.30;90.10;;;;;;5070253;28;19954;-73
2022/03/05 09:34:35;;;;;;;;;;;10.40;89.20;;;;;;5069388;28;19920;-71
2022/03/05 09:37:00;;;;;;;;;;;10.10;89.20;;;;;;5070311;28;19915;-73
2022/03/05 09:39:26;;;;;;;;;;;9.70;88.50;;;;;;5070730;28;19919;-68
2022/03/05 09:41:53;;;;;;;;;;;10.10;88.10;;;;;;5071077;28;20367;-74
2022/03/05 09:44:18;;;;;;;;;;;10.00;87.50;;;;;;5071595;28;19915;-73
2022/03/05 09:46:44;;;;;;;;;;;10.20;88.10;;;;;;5070524;28;19908;-73
2022/03/05 09:49:10;;;;;;;;;;;10.30;90.30;;;;;;5070727;28;19912;-73
2022/03/05 09:51:36;;;;;;;;;;;10.60;89.00;;;;;;5070679;28;20034;-73
2022/03/05 09:54:02;;;;;;;;;;;10.50;85.70;;;;;;5071055;28;19963;-74
2022/03/05 09:56:28;;;;;;;;;;;10.00;87.00;;;;;;5070902;28;19920;-73
2022/03/05 09:58:56;;;;;;;;;;;10.10;88.50;;;;;;5063727;28;19909;-74
2022/03/05 10:01:21;;;;;;;;;;;10.30;88.70;;;;;;5054304;28;19958;-71
2022/03/05 10:03:49;;;;;;;;;;;10.30;87.70;;;;;;5051382;28;19912;-73
2022/03/05 10:06:21;;;;;;;;;;;10.50;87.70;;;;;;5050744;28;20360;-73
2022/03/05 10:08:47;;;;;;;;;;;10.50;89.00;;;;;;5051338;28;19920;-74
2022/03/05 10:11:13;;;;;;;;;;;10.50;87.70;;;;;;5050913;28;19963;-76
2022/03/05 10:13:40;;;;;;;;;;;10.90;88.30;;;;;;5051334;28;20367;-69
2022/03/05 10:16:20;;;;;;;;;;;11.10;88.20;;;;;;5050381;28;20585;-72
2022/03/05 10:18:46;;;;;;;;;;;11.40;88.20;;;;;;5050217;28;20370;-72
2022/03/05 10:21:12;;;;;;;;;;;11.20;87.60;;;;;;5051448;28;19920;-68
2022/03/05 10:23:43;;;;;;;;;;;10.50;81.40;;;;;;5052612;28;19912;-73
2022/03/05 10:26:09;;;;;;;;;;;11.00;86.90;;;;;;5049670;28;19908;-69
2022/03/05 10:28:37;;;;;;;;;;;11.30;84.80;;;;;;5053943;28;20367;-68
2022/03/05 10:31:07;;;;;;;;;;;11.30;84.60;;;;;;5058194;28;20360;-69
2022/03/05 10:33:37;;;;;;;;;;;10.80;80.60;;;;;;5066631;28;19921;-68
2022/03/05 10:36:04;;;;;;;;;;;10.70;80.20;;;;;;5050247;28;19912;-68
2022/03/05 10:38:56;;;;;;;;;;;10.90;80.70;;;;;;5051219;28;19915;-69
2022/03/05 10:41:42;;;;;;;;;;;11.10;81.50;;;;;;5047328;28;19978;-66
2022/03/05 10:44:10;;;;;;;;;;;11.50;86.70;;;;;;5050565;28;20359;-67
2022/03/05 10:46:40;;;;;;;;;;;11.70;82.50;;;;;;5055203;28;20011;-67
2022/03/05 10:49:06;;;;;;;;;;;10.90;79.20;;;;;;5071786;28;19951;-66
2022/03/05 10:51:32;;;;;;;;;;;11.20;82.90;;;;;;5070424;28;20315;-66
2022/03/05 10:53:57;;;;;;;;;;;11.10;84.40;;;;;;5070627;28;19916;-68
2022/03/05 10:56:30;;;;;;;;;;;10.60;80.10;;;;;;5071065;28;19919;-67
2022/03/05 10:58:56;;;;;;;;;;;10.90;82.20;;;;;;5070587;28;19908;-69
2022/03/05 11:01:23;;;;;;;;;;;11.00;80.20;;;;;;5073064;28;19971;-67
2022/03/05 11:03:50;;;;;;;;;;;11.30;80.80;;;;;;5072367;28;20371;-66
2022/03/05 11:06:16;;;;;;;;;;;10.80;79.80;;;;;;5072461;28;19912;-70
2022/03/05 11:08:41;;;;;;;;;;;10.70;79.90;;;;;;5073213;28;19909;-67
2022/03/05 11:11:07;;;;;;;;;;;10.80;80.40;;;;;;5074689;28;19908;-71
2022/03/05 11:13:33;;;;;;;;;;;10.00;81.60;;;;;;5072939;28;19947;-66
2022/03/05 11:15:59;;;;;;;;;;;9.90;82.20;;;;;;5073939;28;19975;-69
2022/03/05 11:18:25;;;;;;;;;;;10.50;82.50;;;;;;5072967;28;19982;-71
2022/03/05 11:20:52;;;;;;;;;;;10.00;81.40;;;;;;5067092;28;19912;-69
2022/03/05 11:23:20;;;;;;;;;;;9.80;81.80;;;;;;5054361;28;19913;-69
2022/03/05 11:25:46;;;;;;;;;;;10.40;82.00;;;;;;5054371;28;19955;-69
2022/03/05 11:28:17;;;;;;;;;;;10.10;82.70;;;;;;5052920;28;19909;-70
2022/03/05 11:30:43;;;;;;;;;;;9.90;80.70;;;;;;5054510;28;19936;-69
2022/03/05 11:33:22;;;;;;;;;;;9.70;82.50;;;;;;5054406;28;19921;-67
2022/03/05 11:35:48;;;;;;;;;;;9.60;80.80;;;;;;5053815;28;19913;-69
2022/03/05 11:38:33;;;;;;;;;;;9.70;82.80;;;;;;5053951;28;19913;-73
2022/03/05 11:40:59;;;;;;;;;;;9.90;83.50;;;;;;5074217;28;20283;-70
2022/03/05 11:43:25;;;;;;;;;;;9.90;82.60;;;;;;5072497;28;20063;-68
2022/03/05 11:45:58;;;;;;;;;;;9.60;84.00;;;;;;5069903;28;19962;-66
2022/03/05 11:48:24;;;;;;;;;;;9.80;82.50;;;;;;5068363;28;19909;-66
2022/03/05 11:50:50;;;;;;;;;;;10.00;83.70;;;;;;5064542;28;20367;-67
2022/03/05 11:53:16;;;;;;;;;;;10.20;83.80;;;;;;5072593;28;20363;-69
2022/03/05 11:55:42;;;;;;;;;;;10.10;83.10;;;;;;5073940;28;19912;-69
2022/03/05 11:58:09;;;;;;;;;;;10.20;85.70;;;;;;5072593;28;19953;-68
2022/03/05 12:00:35;;;;;;;;;;;9.70;83.50;;;;;;5072730;28;19912;-68
2022/03/05 12:03:02;;;;;;;;;;;9.60;82.00;;;;;;5068981;28;19909;-67
2022/03/05 12:05:37;;;;;;;;;;;9.60;83.20;;;;;;5071781;28;19938;-66
2022/03/05 12:08:10;;;;;;;;;;;9.40;83.70;;;;;;5068129;28;19909;-67
2022/03/05 12:10:38;;;;;;;;;;;9.50;82.90;;;;;;5072930;28;19997;-71
2022/03/05 12:13:06;;;;;;;;;;;9.30;84.00;;;;;;5071014;28;19923;-70
2022/03/05 12:15:35;;;;;;;;;;;9.50;83.60;;;;;;5071734;28;20394;-70
2022/03/05 12:18:02;;;;;;;;;;;9.80;81.60;;;;;;5068596;28;20427;-71
2022/03/05 12:20:32;;;;;;;;;;;10.30;85.00;;;;;;5071200;28;19908;-66
2022/03/05 12:23:01;;;;;;;;;;;10.50;84.20;;;;;;5071312;28;20426;-67
2022/03/05 12:25:28;;;;;;;;;;;10.00;84.10;;;;;;5071732;28;19919;-66
2022/03/05 12:27:54;;;;;;;;;;;10.00;82.20;;;;;;5073629;28;19909;-66
2022/03/05 12:30:22;;;;;;;;;;;9.90;83.50;;;;;;5072430;28;20445;-68
2022/03/05 12:32:48;;;;;;;;;;;9.80;81.20;;;;;;5071834;28;19909;-72
2022/03/05 12:35:14;;;;;;;;;;;9.60;82.50;;;;;;5071962;28;19962;-73
2022/03/05 12:37:41;;;;;;;;;;;9.50;81.10;;;;;;5070409;28;19914;-65
2022/03/05 12:40:07;;;;;;;;;;;9.60;82.50;;;;;;5071870;28;19939;-66
2022/03/05 12:42:42;;;;;;;;;;;9.90;81.90;;;;;;5072509;28;19908;-64
2022/03/05 12:45:13;;;;;;;;;;;9.80;79.20;;;;;;5070955;28;19912;-64
2022/03/05 12:47:39;;;;;;;;;;;9.40;78.90;;;;;;5071969;28;19908;-69
2022/03/05 12:50:23;;;;;;;;;;;9.30;78.50;;;;;;5071735;28;19934;-66
2022/03/05 12:52:56;;;;;;;;;;;9.40;78.50;;;;;;5071813;28;19932;-71
2022/03/05 12:55:22;;;;;;;;;;;9.20;77.80;;;;;;5070768;28;20358;-71
2022/03/05 12:57:51;;;;;;;;;;;9.50;77.70;;;;;;5072287;28;19912;-68
2022/03/05 13:00:17;;;;;;;;;;;9.70;77.60;;;;;;5071270;28;20627;-71
2022/03/05 13:02:42;;;;;;;;;;;9.70;77.20;;;;;;5072193;28;19912;-66
2022/03/05 13:05:12;;;;;;;;;;;9.50;77.10;;;;;;5072050;28;19916;-66
2022/03/05 13:07:38;;;;;;;;;;;9.40;77.70;;;;;;5072303;28;19927;-68
2022/03/05 13:10:13;;;;;;;;;;;9.30;77.40;;;;;;5071723;28;20284;-67
2022/03/05 13:12:40;;;;;;;;;;;9.40;79.20;;;;;;5071031;28;19914;-67
2022/03/05 13:15:07;;;;;;;;;;;9.80;78.10;;;;;;5071649;28;19920;-66
2022/03/05 13:17:34;;;;;;;;;;;9.90;78.70;;;;;;5069210;28;19908;-69
2022/03/05 13:20:00;;;;;;;;;;;9.80;78.60;;;;;;5070923;28;19998;-68
2022/03/05 13:22:27;;;;;;;;;;;9.30;76.40;;;;;;5070648;28;19920;-70
2022/03/05 13:24:52;;;;;;;;;;;9.40;77.90;;;;;;5071273;28;19982;-66
2022/03/05 13:27:23;;;;;;;;;;;9.30;78.50;;;;;;5072056;28;20334;-72
2022/03/05 13:29:50;;;;;;;;;;;9.50;76.70;;;;;;5071786;28;20062;-69
2022/03/05 13:32:16;;;;;;;;;;;9.30;77.10;;;;;;5069872;28;19912;-71
2022/03/05 13:34:42;;;;;;;;;;;9.50;77.20;;;;;;5070390;28;19928;-72
2022/03/05 13:37:11;;;;;;;;;;;9.20;76.60;;;;;;5071306;28;20287;-71
2022/03/05 13:39:37;;;;;;;;;;;9.40;77.20;;;;;;5071272;28;20283;-72
2022/03/05 13:42:14;;;;;;;;;;;9.20;76.10;;;;;;5069895;28;19909;-67
2022/03/05 13:44:40;;;;;;;;;;;9.40;77.10;;;;;;5071563;28;19939;-69
2022/03/05 13:47:08;;;;;;;;;;;9.50;76.40;;;;;;5071304;28;19912;-66
2022/03/05 13:49:34;;;;;;;;;;;9.60;78.20;;;;;;5070052;28;19908;-73
2022/03/05 13:52:01;;;;;;;;;;;9.80;77.20;;;;;;5070439;28;20019;-73
2022/03/05 13:54:44;;;;;;;;;;;9.40;76.00;;;;;;5070099;28;20406;-72
2022/03/05 13:57:16;;;;;;;;;;;9.50;76.60;;;;;;5069720;28;19965;-71
2022/03/05 13:59:43;;;;;;;;;;;9.50;76.70;;;;;;5071076;28;19908;-68
2022/03/05 14:02:09;;;;;;;;;;;9.70;77.20;;;;;;5070789;28;19908;-69
2022/03/05 14:04:53;;;;;;;;;;;9.50;76.80;;;;;;5070542;28;19915;-73
2022/03/05 14:07:19;;;;;;;;;;;9.60;77.00;;;;;;5071002;28;19916;-73
2022/03/05 14:09:45;;;;;;;;;;;9.30;76.00;;;;;;5069852;28;20027;-73
2022/03/05 14:12:12;;;;;;;;;;;9.50;76.00;;;;;;5071147;28;19912;-73
2022/03/05 14:14:50;;;;;;;;;;;9.40;76.90;;;;;;5071172;28;19969;-71
2022/03/05 14:17:25;;;;;;;;;;;9.50;76.40;;;;;;5070131;28;19912;-68
2022/03/05 14:20:02;;;;;;;;;;;9.30;76.30;;;;;;5069416;28;19916;-65
2022/03/05 14:22:33;;;;;;;;;;;9.40;77.00;;;;;;5070560;28;20353;-66
2022/03/05 14:24:58;;;;;;;;;;;9.10;76.00;;;;;;5070958;28;19909;-68
2022/03/05 14:27:24;;;;;;;;;;;9.40;76.70;;;;;;5069954;28;19962;-74